Nearby METAR Reports

 

KPAE - Everett, Washington, USA
Distance from station: NW 15mi, 25km
Updated: 08/23/2017 10:53pm
Few Clouds
Few Clouds
 Wind from N
Wind: N 9 mph , 15 km/h
Temperature: 57°F , 14°C
Dew Point: 48°F , 9°C
Humidity: 72%
Barometer: 30.00 inHg , 1015.9 hPa
Clouds: Few Clouds
Visibility: 10 miles , 16 km
Cloud details: Few Clouds 4600 ft
2017/08/24 05:53 KPAE 240553Z AUTO 35008KT 10SM FEW046 14/09 A3000 RMK AO2 SLP157 T01390094 10217 20139 51005
KBFI - Seattle/Boeing, Washington, USA
Distance from station: SW 20mi, 31km
Updated: 08/23/2017 10:53pm
Clear
Clear
 Wind from NNE
Wind: NNE 3 mph , 6 km/h
Temperature: 64°F , 18°C
Dew Point: 59°F , 15°C
Humidity: 83%
Barometer: 29.97 inHg , 1014.9 hPa
Clouds: Clear
Visibility: 10 miles , 16 km
2017/08/24 05:53 KBFI 240553Z 03003KT 10SM CLR 18/15 A2997 RMK AO2 SLP150 T01830150 10233 20183 51010
KSEA - Seattle/Metro, Washington, USA
Distance from station: SSW 25mi, 41km
Updated: 08/23/2017 10:53pm
Mostly cloudy
Mostly cloudy
 Wind from W
Wind: W 5 mph , 7 km/h
Temperature: 63°F , 17°C
Dew Point: 57°F , 14°C
Humidity: 83%
Barometer: 29.99 inHg , 1015.6 hPa
Clouds: Mostly cloudy
Visibility: 10 miles , 16 km
Cloud details: Few Clouds 10000 ft
Mostly cloudy 24000 ft
2017/08/24 05:53 KSEA 240553Z 28004KT 10SM FEW100 BKN240 17/14 A2999 RMK AO2 SLP160 T01670139 10239 20167 51008
 
KAWO - Arlington Muni, Washington, USA
Distance from station: NNW 28mi, 46km
Updated: 08/23/2017 10:56pm
Mostly cloudy
Mostly cloudy
 Wind from N
Wind: N 5 mph , 7 km/h
Temperature: 57°F , 14°C
Dew Point: 48°F , 9°C
Humidity: 72%
Barometer: 30.00 inHg , 1015.9 hPa
Clouds: Mostly cloudy
Visibility: 10 miles , 16 km
Cloud details: Mostly cloudy 4900 ft
2017/08/24 05:56 KAWO 240556Z AUTO 01004KT 10SM BKN049 14/09 A3000 RMK AO2 SLP163 T01390094 10233 20139 51006
KPWT - Bremerton Ntnl, Washington, USA
Distance from station: WSW 38mi, 61km
Updated: 08/23/2017 10:56pm
Clear
Clear
 Wind from calm
Wind: Calm
Temperature: 57°F , 14°C
Dew Point: 55°F , 13°C
Humidity: 94%
Barometer: 29.99 inHg , 1015.6 hPa
Clouds: Clear
Visibility: 10 miles , 16 km
2017/08/24 05:56 KPWT 240556Z AUTO 00000KT 10SM CLR 14/13 A2999 RMK AO2 SLP170 T01440133 10244 20144 51006
KTIW - Tacoma, Washington, USA
Distance from station: SW 43mi, 69km
Updated: 08/23/2017 10:53pm
Clear
Clear
 Wind from SW
Wind: SW 5 mph , 7 km/h
Temperature: 61°F , 16°C
Dew Point: 59°F , 15°C
Humidity: 94%
Barometer: 29.99 inHg , 1015.6 hPa
Clouds: Clear
Visibility: 10 miles , 16 km
2017/08/24 05:53 KTIW 240553Z AUTO 22004KT 10SM CLR 16/15 A2999 RMK AO2 SLP155 T01610150 10239 20161 50008
 
KPLU - Puyallup/Thun, Washington, USA
Distance from station: SSW 47mi, 76km
Updated: 08/23/2017 11:35pm
Overcast
Overcast
 Wind from calm
Wind: Calm
Temperature: 63°F , 17°C
Dew Point: 61°F , 16°C
Humidity: 94%
Barometer: 30.00 inHg , 1015.9 hPa
Clouds: Overcast
Visibility: 10 miles , 16 km
Cloud details: Overcast 1300 ft
2017/08/24 06:35 KPLU 240635Z AUTO 00000KT 10SM OVC013 17/16 A3000 RMK AO2
KSMP - Stampede Pass, Washington, USA
Distance from station: SE 47mi, 76km
Updated: 08/23/2017 10:56pm
Clear
Clear
 Wind from varies
Wind: varies 3 mph , 6 km/h
Temperature: 54°F , 12°C
Dew Point: 48°F , 9°C
Humidity: 82%
Barometer: 30.05 inHg , 1017.6 hPa
Clouds: Clear
Visibility: 10 miles , 16 km
2017/08/24 05:56 KSMP 240556Z AUTO VRB03KT 10SM CLR 12/09 A3005 RMK AO2 SLP154 T01220094 10217 20122 58001
KNUW - Whidbey Is. Nas, Washington, USA
Distance from station: NW 49mi, 79km
Updated: 08/23/2017 10:56pm
Mostly cloudy
Mostly cloudy
 Wind from WSW
Wind: WSW 8 mph , 13 km/h
Temperature: 59°F , 15°C
Dew Point: 46°F , 8°C
Humidity: 63%
Barometer: 30.01 inHg , 1016.3 hPa
Clouds: Mostly cloudy
Visibility: 10 miles , 16 km
Cloud details: Partly cloudy 3000 ft
Mostly cloudy 4700 ft
Mostly cloudy 8000 ft
2017/08/24 05:56 KNUW 240556Z 24007KT 10SM SCT030 BKN047 BKN080 15/08 A3001 RMK AO2 SLP160 T01500083 10194 20150 50004
 
KBVS - Burlington/Mt V, Washington, USA
Distance from station: NNW 51mi, 83km
Updated: 08/23/2017 11:35pm
Overcast
Overcast
 Wind from SSE
Wind: SSE 8 mph , 13 km/h
Temperature: 59°F , 15°C
Dew Point: 48°F , 9°C
Humidity: 68%
Barometer: 29.98 inHg , 1015.2 hPa
Clouds: Overcast
Visibility: 10 miles , 16 km
Cloud details: Overcast 4600 ft
2017/08/24 06:35 KBVS 240635Z AUTO 15007KT 10SM OVC046 15/09 A2998 RMK A01
KSHN - Shelton, Washington, USA
Distance from station: SW 63mi, 101km
Updated: 08/23/2017 10:53pm
Clear
Clear
 Wind from WSW
Wind: WSW 9 mph , 15 km/h
Temperature: 61°F , 16°C
Dew Point: 55°F , 13°C
Humidity: 83%
Barometer: 29.96 inHg , 1014.6 hPa
Clouds: Clear
Visibility: 10 miles , 16 km
2017/08/24 05:53 KSHN 240553Z AUTO 24008KT 10SM CLR 16/13 A2996 RMK AO2 SLP145 T01560128 10233 20156 51004 $
KOLM - Olympia, Washington, USA
Distance from station: SW 68mi, 110km
Updated: 08/23/2017 10:54pm
Clear
Clear
 Wind from SSW
Wind: SSW 6 mph , 9 km/h
Temperature: 61°F , 16°C
Dew Point: 57°F , 14°C
Humidity: 88%
Barometer: 29.98 inHg , 1015.2 hPa
Clouds: Clear
Visibility: 10 miles , 16 km
2017/08/24 05:54 KOLM 240554Z 20005KT 10SM CLR 16/14 A2998 RMK AO2 SLP154 T01560144 10244 20156 51005
 
KCLM - Port Angeles, Washington, USA
Distance from station: WNW 72mi, 115km
Updated: 08/23/2017 10:53pm
Overcast
Overcast
 Wind from WNW
Wind: WNW 14 mph , 22 km/h, Gust: 22 mph , 35 km/h
Temperature: 59°F , 15°C
Dew Point: 45°F , 7°C
Humidity: 59%
Barometer: 30.00 inHg , 1015.9 hPa
Clouds: Overcast
Visibility: 10 miles , 16 km
Cloud details: Mostly cloudy 6500 ft
Overcast 8000 ft
2017/08/24 05:53 KCLM 240553Z AUTO 29012G19KT 10SM BKN065 OVC080 15/07 A3000 RMK AO2 SLP159 T01500072 10178 20144 51001
CWYJ - Victoria Univ, British Columbia, Canada
Distance from station: NW 75mi, 121km
Updated: 08/23/2017 11:00pm

 Wind from WSW
Wind: WSW 5 mph , 7 km/h
Temperature: 61°F , 16°C
Dew Point: 46°F , 8°C
Humidity: 59%
2017/08/24 06:00 CWYJ 240600Z AUTO 25004KT 16/08 RMK AO1 SLP139 T01600080 51005
KBLI - Bellingham, Washington, USA
Distance from station: NNW 75mi, 121km
Updated: 08/23/2017 10:53pm
Overcast
Overcast
 Wind from S
Wind: S 10 mph , 17 km/h
Temperature: 61°F , 16°C
Dew Point: 54°F , 12°C
Humidity: 77%
Barometer: 29.94 inHg , 1013.9 hPa
Clouds: Overcast
Visibility: 10 miles , 16 km
Cloud details: Mostly cloudy 5500 ft
Overcast 8000 ft
2017/08/24 05:53 KBLI 240553Z AUTO 17009KT 10SM BKN055 OVC080 16/12 A2994 RMK AO2 SLP143 T01610117 10211 20161 52004